• Join FlightAware (Why Join?)
  • Login
  • US Flag 
11:08PM EST


 

Airport Tracker/Info


-or-


 

Live Flight TrackerFlight Track Log ✈ SWA776 ✈ 08-Sep-2013 ✈ KEWR - KPHX

Flight Track Log - Related Links

Times and Time Zones

All times are in EDT time to prevent confusion due to time zone crossing. See the SWA776 flight status page for this flight to view local times or setup timezone preferences in your user account.

Time Position Orientation Groundspeed Altitude Reporting Facility
EDT Latitude Longitude Course Direction KTS MPH feet Rate Location/Type
01:41PM 40.7340 -74.1160 57° Northeast 203 234 2,300  Level FlightAware
01:42PM 40.7370 -74.1140 27° Northeast 204 235 2,400 1,200 Climbing FlightAware
01:42PM 40.7420 -74.1110 24° Northeast 208 239 2,500 1,500 Climbing FlightAware
01:42PM 40.7520 -74.1100 North 211 243 2,800 1,800 Climbing FlightAware
01:42PM 40.7580 -74.1130 339° North 209 241 3,100 2,520 Climbing FlightAware
01:42PM 40.7700 -74.1230 328° Northwest 214 246 3,600 2,580 Climbing FlightAware
01:42PM 40.7860 -74.1380 325° Northwest 214 246 4,400 2,400 Climbing FlightAware
01:43PM 40.7930 -74.1460 319° Northwest 213 245 4,800 2,400 Climbing FlightAware
01:43PM 40.7940 -74.1500 288° West 216 249 5,000 2,160 Climbing FlightAware
01:43PM 40.7960 -74.1580 288° West 218 251 5,200 2,760 Climbing FlightAware
01:43PM 40.7970 -74.1720 275° West 223 257 5,700 1,860 Climbing FlightAware
01:43PM 40.7980 -74.1970 273° West 248 285 6,100 2,700 Climbing FlightAware
01:44PM 40.7990 -74.2310 272° West 247 284 7,500 3,120 Climbing FlightAware
01:44PM 40.8010 -74.2570 276° West 259 298 8,200 2,700 Climbing FlightAware
01:44PM 40.8020 -74.2870 273° West 267 307 9,100 2,940 Climbing FlightAware
01:45PM 40.8040 -74.3410 273° West 274 315 10,700 1,860 Climbing FlightAware
01:45PM 40.8070 -74.4070 273° West 321 369 11,300 1,680 Climbing FlightAware
01:46PM 40.8100 -74.4770 273° West 338 389 12,700 2,700 Climbing FlightAware
01:47PM 40.8090 -74.5600 269° West 348 400 14,600 2,880 Climbing FlightAware
01:47PM 40.8080 -74.6340 269° West 354 407 16,200 2,580 Climbing FlightAware
01:48PM 40.8070 -74.7090 269° West 364 419 17,600 2,400 Climbing FlightAware
01:48PM 40.8070 -74.7850 270° West 369 425 19,000 2,400 Climbing FlightAware
01:49PM 40.8060 -74.8680 269° West 371 427 20,500 2,340 Climbing FlightAware
01:50PM 40.8050 -74.9530 269° West 378 435 21,900 2,040 Climbing FlightAware
01:50PM 40.7950 -75.0290 260° West 392 451 22,900 1,740 Climbing FlightAware
01:51PM 40.7760 -75.1060 252° West 399 459 23,900 1,680 Climbing FlightAware
01:51PM 40.7570 -75.1880 253° West 406 467 24,900 1,620 Climbing FlightAware
01:52PM 40.7370 -75.2690 252° West 413 475 25,800 1,380 Climbing FlightAware
01:53PM 40.7140 -75.3650 252° West 421 484 26,700 1,380 Climbing FlightAware
01:53PM 40.6900 -75.4620 252° West 430 495 27,600 1,380 Climbing FlightAware
01:54PM 40.6710 -75.5420 253° West 436 502 28,300 1,320 Climbing FlightAware
01:54PM 40.6480 -75.6310 251° West 442 509 29,100 1,500 Climbing FlightAware
01:55PM 40.6250 -75.7270 253° West 443 510 30,100 1,680 Climbing FlightAware
01:55PM 40.6020 -75.8160 251° West 440 506 31,200 1,620 Climbing FlightAware
01:56PM 40.5690 -75.9050 244° Southwest 442 509 32,100 1,440 Climbing FlightAware
01:57PM 40.5380 -75.9880 244° Southwest 442 509 32,900 1,320 Climbing FlightAware
01:57PM 40.5090 -76.0640 243° Southwest 442 509 33,600 1,260 Climbing FlightAware
01:58PM 40.4770 -76.1470 243° Southwest 443 510 34,300 1,200 Climbing FlightAware
01:58PM 40.4440 -76.2370 244° Southwest 437 503 35,100 1,140 Climbing FlightAware
01:59PM 40.4190 -76.3300 251° West 435 501 35,800 720 Climbing FlightAware
02:00PM 40.3980 -76.4080 251° West 438 504 36,000 120 Climbing FlightAware
02:00PM 40.3740 -76.4990 251° West 438 504 36,000  Level FlightAware
02:01PM 40.3510 -76.5870 251° West 438 504 36,000  Level FlightAware
02:01PM 40.3300 -76.6640 250° West 440 506 36,000  Level FlightAware
02:02PM 40.3030 -76.7630 250° West 443 510 36,000  Level FlightAware
02:02PM 40.2790 -76.8480 250° West 444 511 36,000  Level FlightAware
02:03PM 40.2560 -76.9340 251° West 443 510 36,000  Level FlightAware
02:04PM 40.2300 -77.0310 251° West 442 509 36,000  Level FlightAware
02:04PM 40.2120 -77.1160 255° West 433 498 36,000  Level FlightAware
02:05PM 40.2070 -77.2040 266° West 428 493 36,000  Level FlightAware
02:05PM 40.2030 -77.2970 267° West 428 493 36,000  Level FlightAware
02:08PM 40.1830 -77.7720 267° West 428 493 36,000  Level FlightAware
02:09PM 40.1800 -77.8580 267° West 429 494 36,000  Level FlightAware
02:10PM 40.1760 -77.9450 267° West 430 495 36,000  Level FlightAware
02:10PM 40.1710 -78.0520 267° West 431 496 36,000  Level FlightAware
02:11PM 40.1690 -78.1160 268° West 431 496 36,000  Level FlightAware
02:11PM 40.1640 -78.2420 267° West 432 497 36,000  Level FlightAware
02:12PM 40.1610 -78.3290 267° West 429 494 36,000  Level FlightAware
02:13PM 40.1570 -78.4130 266° West 427 491 36,000  Level FlightAware
02:13PM 40.1530 -78.5130 267° West 428 493 36,000  Level FlightAware
02:14PM 40.1490 -78.6080 267° West 428 493 36,000  Level FlightAware
02:14PM 40.1460 -78.6940 267° West 427 491 36,000  Level FlightAware
02:15PM 40.1420 -78.7860 267° West 427 491 36,000  Level FlightAware
02:16PM 40.1370 -78.8750 266° West 427 491 36,000  Level FlightAware
02:16PM 40.1340 -78.9590 267° West 426 490 36,000  Level FlightAware
02:17PM 40.1290 -79.0570 266° West 425 489 36,000  Level FlightAware
02:17PM 40.1250 -79.1480 267° West 423 487 36,000  Level FlightAware
02:18PM 40.1210 -79.2300 266° West 421 484 36,000  Level FlightAware
02:18PM 40.1170 -79.3200 267° West 418 481 36,000  Level FlightAware
02:19PM 40.1120 -79.4100 266° West 415 478 36,000  Level FlightAware
02:20PM 40.1080 -79.4900 266° West 413 475 36,000  Level FlightAware
02:20PM 40.1040 -79.5810 267° West 410 472 36,000  Level FlightAware
02:21PM 40.1000 -79.6650 266° West 408 470 36,000  Level FlightAware
02:21PM 40.0950 -79.7550 266° West 406 467 36,000  Level FlightAware
02:22PM 40.0900 -79.8380 266° West 406 467 36,000  Level FlightAware
02:23PM 40.0860 -79.9250 267° West 407 468 36,000  Level FlightAware
02:23PM 40.0810 -80.0080 266° West 407 468 36,000  Level FlightAware
02:24PM 40.0780 -80.0740 267° West 409 471 36,000  Level FlightAware
02:24PM 40.0730 -80.1680 266° West 409 471 36,000  Level FlightAware
02:25PM 40.0680 -80.2580 266° West 409 471 36,000  Level FlightAware
02:25PM 40.0620 -80.3370 264° West 409 471 36,000  Level FlightAware
02:28PM 40.0420 -80.6940 266° West 417 480 36,000  Level FlightAware
02:28PM 40.0360 -80.7860 265° West 419 482 36,000  Level FlightAware
02:29PM 40.0310 -80.8710 266° West 420 483 36,000  Level FlightAware
02:30PM 40.0250 -80.9570 265° West 420 483 36,000  Level FlightAware
02:30PM 40.0200 -81.0500 266° West 423 487 36,000  Level FlightAware
02:31PM 40.0140 -81.1370 265° West 424 488 36,000  Level FlightAware
02:31PM 40.0080 -81.2320 265° West 424 488 36,000  Level FlightAware
02:32PM 40.0040 -81.2950 265° West 425 489 36,000  Level FlightAware
02:32PM 39.9970 -81.4050 265° West 425 489 36,000  Level FlightAware
02:33PM 39.9910 -81.4900 265° West 425 489 36,000  Level FlightAware
02:34PM 39.9840 -81.5910 265° West 425 489 36,000  Level FlightAware
02:36PM 39.9540 -82.0210 265° West 422 486 36,000  Level FlightAware
02:37PM 39.9470 -82.1170 265° West 422 486 36,000  Level FlightAware
02:38PM 39.9410 -82.2070 265° West 422 486 36,000  Level FlightAware
02:38PM 39.9330 -82.3050 264° West 421 484 36,000  Level FlightAware
02:39PM 39.9280 -82.3780 265° West 421 484 36,000  Level FlightAware
02:39PM 39.9200 -82.4760 264° West 421 484 36,000  Level FlightAware
02:40PM 39.9140 -82.5660 265° West 421 484 36,000  Level FlightAware
02:41PM 39.9070 -82.6470 264° West 422 486 36,000  Level FlightAware
02:41PM 39.9000 -82.7380 264° West 423 487 36,000  Level FlightAware
02:42PM 39.8930 -82.8280 264° West 423 487 36,000  Level FlightAware
02:42PM 39.8860 -82.9160 264° West 423 487 36,000  Level FlightAware
02:43PM 39.8790 -83.0050 264° West 424 488 36,000  Level FlightAware
02:44PM 39.8720 -83.0910 264° West 425 489 36,000 240 Level FlightAware
02:44PM 39.8650 -83.1780 264° West 429 494 36,300 720 Climbing FlightAware
02:45PM 39.8580 -83.2620 264° West 431 496 36,800 900 Climbing FlightAware
02:45PM 39.8490 -83.3650 264° West 432 497 37,400 840 Climbing FlightAware
02:46PM 39.8420 -83.4520 264° West 431 496 37,900 480 Climbing FlightAware
02:46PM 39.8350 -83.5400 264° West 434 499 38,000 60 Climbing FlightAware
02:47PM 39.8270 -83.6320 264° West 435 501 38,000  Level FlightAware
02:48PM 39.8190 -83.7260 264° West 437 503 38,000  Level FlightAware
02:48PM 39.8110 -83.8110 263° West 438 504 38,000  Level FlightAware
02:49PM 39.8030 -83.9090 264° West 439 505 38,000  Level FlightAware
02:49PM 39.7940 -84.0050 263° West 440 506 38,000  Level FlightAware
02:50PM 39.7870 -84.0870 264° West 441 507 38,000  Level FlightAware
02:51PM 39.7780 -84.1850 263° West 442 509 38,000  Level FlightAware
02:51PM 39.7700 -84.2730 263° West 442 509 38,000  Level FlightAware
02:52PM 39.7610 -84.3670 263° West 442 509 38,000  Level FlightAware
02:52PM 39.7520 -84.4610 263° West 442 509 38,000  Level FlightAware
02:53PM 39.7430 -84.5560 263° West 442 509 38,000  Level FlightAware
02:53PM 39.7360 -84.6400 264° West 442 509 38,000  Level FlightAware
02:54PM 39.7260 -84.7340 262° West 442 509 38,000  Level FlightAware
02:55PM 39.7170 -84.8310 263° West 441 507 38,000  Level FlightAware
02:55PM 39.7090 -84.9150 263° West 441 507 38,000  Level FlightAware
02:56PM 39.7000 -85.0080 263° West 440 506 38,000  Level FlightAware
02:56PM 39.6910 -85.1010 263° West 439 505 38,000  Level FlightAware
02:57PM 39.6810 -85.1960 262° West 439 505 38,000  Level FlightAware
02:58PM 39.6720 -85.2890 263° West 439 505 38,000  Level FlightAware
02:58PM 39.6640 -85.3720 263° West 439 505 38,000  Level FlightAware
02:59PM 39.6530 -85.4720 262° West 440 506 38,000  Level FlightAware
02:59PM 39.6440 -85.5650 263° West 440 506 38,000  Level FlightAware
03:00PM 39.6350 -85.6510 262° West 441 507 38,000  Level FlightAware
03:00PM 39.6260 -85.7380 262° West 441 507 38,000  Level FlightAware
03:01PM 39.6170 -85.8240 262° West 444 511 38,000  Level FlightAware
03:02PM 39.6060 -85.9230 262° West 446 513 38,000  Level FlightAware
03:02PM 39.5970 -86.0140 263° West 447 514 38,000  Level FlightAware
03:03PM 39.5860 -86.1120 262° West 449 517 38,000  Level FlightAware
03:03PM 39.5760 -86.2040 262° West 448 516 38,000  Level FlightAware
03:04PM 39.5660 -86.2900 261° West 446 513 38,000  Level FlightAware
03:05PM 39.5530 -86.4130 262° West 445 512 38,000  Level FlightAware
03:05PM 39.5430 -86.5050 262° West 444 511 38,000  Level FlightAware
03:06PM 39.5330 -86.5960 262° West 444 511 38,000  Level FlightAware
03:06PM 39.5230 -86.6810 261° West 444 511 38,000  Level FlightAware
03:07PM 39.5120 -86.7780 262° West 445 512 38,000  Level FlightAware
03:08PM 39.5020 -86.8700 262° West 445 512 38,000  Level FlightAware
03:08PM 39.4910 -86.9630 261° West 446 513 38,000  Level FlightAware
03:09PM 39.4810 -87.0480 261° West 447 514 38,000  Level FlightAware
03:09PM 39.4700 -87.1440 262° West 447 514 38,000  Level FlightAware
03:10PM 39.4580 -87.2420 261° West 447 514 38,000  Level FlightAware
03:10PM 39.4480 -87.3280 261° West 445 512 38,000  Level FlightAware
03:11PM 39.4340 -87.4470 261° West 445 512 38,000  Level FlightAware
03:12PM 39.4210 -87.5490 261° West 445 512 38,000  Level FlightAware
03:12PM 39.4100 -87.6410 261° West 444 511 38,000  Level FlightAware
03:13PM 39.3980 -87.7440 261° West 445 512 38,000  Level FlightAware
03:14PM 39.3870 -87.8290 261° West 446 513 38,000  Level FlightAware
03:14PM 39.3740 -87.9330 261° West 447 514 38,000  Level FlightAware
03:15PM 39.3650 -88.0090 261° West 448 516 38,000  Level FlightAware
03:15PM 39.3530 -88.1040 261° West 448 516 38,000  Level FlightAware
03:16PM 39.3410 -88.2000 261° West 449 517 38,000  Level FlightAware
03:17PM 39.3280 -88.3030 261° West 448 516 38,000  Level FlightAware
03:17PM 39.3170 -88.3870 260° West 447 514 38,000  Level FlightAware
03:18PM 39.3050 -88.4770 260° West 447 514 38,000  Level FlightAware
03:18PM 39.2930 -88.5740 261° West 447 514 38,000  Level FlightAware
03:19PM 39.2800 -88.6680 260° West 446 513 38,000  Level FlightAware
03:19PM 39.2740 -88.7440 264° West 444 511 38,000  Level FlightAware
03:20PM 39.2820 -88.8580 275° West 442 509 38,000  Level FlightAware
03:21PM 39.2890 -88.9400 276° West 442 509 38,000  Level FlightAware
03:21PM 39.2960 -89.0190 277° West 443 510 38,000  Level FlightAware
03:22PM 39.3050 -89.1210 277° West 445 512 38,000  Level FlightAware
03:22PM 39.3140 -89.2150 277° West 447 514 38,000  Level FlightAware
03:23PM 39.3220 -89.2910 278° West 447 514 38,000  Level FlightAware
03:23PM 39.3310 -89.3830 277° West 448 516 38,000  Level FlightAware
03:24PM 39.3420 -89.4950 277° West 445 512 38,000  Level FlightAware
03:25PM 39.3510 -89.5900 277° West 442 509 38,000  Level FlightAware
03:25PM 39.3510 -89.6630 270° West 442 509 38,000  Level FlightAware
03:26PM 39.3420 -89.7290 260° West 445 512 38,000  Level FlightAware
03:26PM 39.3240 -89.8390 258° West 441 507 38,000  Level FlightAware
03:27PM 39.3090 -89.9280 258° West 438 504 38,000  Level FlightAware
03:28PM 39.2950 -90.0160 258° West 437 503 38,000  Level FlightAware
03:28PM 39.2780 -90.1130 257° West 436 502 38,000  Level FlightAware
03:29PM 39.2640 -90.1970 258° West 437 503 38,000  Level FlightAware
03:29PM 39.2480 -90.2920 258° West 434 499 38,000  Level FlightAware
03:30PM 39.2330 -90.3780 257° West 432 497 38,000  Level FlightAware
03:30PM 39.2190 -90.4610 258° West 431 496 38,000  Level FlightAware
03:31PM 39.2020 -90.5580 257° West 430 495 38,000  Level FlightAware
03:32PM 39.1870 -90.6440 257° West 429 494 38,000  Level FlightAware
03:32PM 39.1720 -90.7320 258° West 428 493 38,000  Level FlightAware
03:33PM 39.1590 -90.8100 258° West 428 493 38,000  Level FlightAware
03:33PM 39.1430 -90.9020 257° West 429 494 38,000  Level FlightAware
03:34PM 39.1280 -90.9840 257° West 430 495 38,000  Level FlightAware
03:35PM 39.1130 -91.0710 257° West 435 501 38,000  Level FlightAware
03:35PM 39.0970 -91.1640 258° West 436 502 38,000  Level FlightAware
03:36PM 39.0800 -91.2560 257° West 436 502 38,000  Level FlightAware
03:36PM 39.0640 -91.3460 257° West 435 501 38,000  Level FlightAware
03:37PM 39.0500 -91.4260 257° West 439 505 38,000  Level FlightAware
03:38PM 39.0330 -91.5200 257° West 440 506 38,000  Level FlightAware
03:38PM 39.0170 -91.6080 257° West 441 507 38,000  Level FlightAware
03:39PM 39.0020 -91.6870 256° West 440 506 38,000  Level FlightAware
03:39PM 38.9850 -91.7840 257° West 441 507 38,000  Level FlightAware
03:40PM 38.9670 -91.8800 256° West 441 507 38,000  Level FlightAware
03:40PM 38.9510 -91.9670 257° West 442 509 38,000  Level FlightAware
03:41PM 38.9350 -92.0510 256° West 443 510 38,000  Level FlightAware
03:42PM 38.9180 -92.1450 257° West 443 510 38,000  Level FlightAware
03:42PM 38.9010 -92.2350 256° West 444 511 38,000  Level FlightAware
03:43PM 38.8860 -92.3160 257° West 443 510 38,000  Level FlightAware
03:43PM 38.8670 -92.4150 256° West 443 510 38,000  Level FlightAware
03:44PM 38.8510 -92.5020 257° West 444 511 38,000  Level FlightAware
03:44PM 38.8370 -92.5740 256° West 445 512 38,000  Level FlightAware
03:45PM 38.8210 -92.6590 256° West 446 513 38,000  Level FlightAware
03:46PM 38.8020 -92.7560 256° West 447 514 38,000  Level FlightAware
03:46PM 38.7870 -92.8360 256° West 447 514 38,000  Level FlightAware
03:47PM 38.7670 -92.9370 256° West 448 516 38,000  Level FlightAware
03:47PM 38.7510 -93.0210 256° West 447 514 38,000  Level FlightAware
03:48PM 38.7320 -93.1160 256° West 447 514 38,000  Level FlightAware
03:48PM 38.7150 -93.2020 256° West 446 513 38,000  Level FlightAware
03:49PM 38.6990 -93.2860 256° West 446 513 38,000  Level FlightAware
03:50PM 38.6820 -93.3730 256° West 445 512 38,000  Level FlightAware
03:50PM 38.6650 -93.4590 256° West 444 511 38,000  Level FlightAware
03:51PM 38.6480 -93.5400 255° West 443 510 38,000  Level FlightAware
03:51PM 38.6280 -93.6440 256° West 443 510 38,000  Level FlightAware
03:52PM 38.6090 -93.7340 255° West 445 512 38,000  Level FlightAware
03:53PM 38.5910 -93.8270 256° West 444 511 38,000  Level FlightAware
03:53PM 38.5730 -93.9140 255° West 445 512 38,000  Level FlightAware
03:54PM 38.5570 -93.9910 255° West 445 512 38,000  Level FlightAware
03:54PM 38.5360 -94.0960 256° West 445 512 38,000  Level FlightAware
03:55PM 38.5180 -94.1840 255° West 446 513 38,000  Level FlightAware
03:55PM 38.5010 -94.2670 255° West 446 513 38,000  Level FlightAware
03:56PM 38.4810 -94.3610 255° West 448 516 38,000  Level FlightAware
03:57PM 38.4640 -94.4440 255° West 448 516 38,000  Level FlightAware
03:57PM 38.4440 -94.5370 255° West 449 517 38,000  Level FlightAware
03:58PM 38.4240 -94.6320 255° West 447 514 38,000  Level FlightAware
03:58PM 38.4080 -94.7090 255° West 446 513 38,000  Level FlightAware
03:59PM 38.3890 -94.7970 255° West 445 512 38,000  Level FlightAware
04:00PM 38.3690 -94.8930 255° West 443 510 38,000  Level FlightAware
04:00PM 38.3530 -94.9670 255° West 443 510 38,000  Level FlightAware
04:01PM 38.3330 -95.0620 255° West 444 511 38,000  Level FlightAware
04:01PM 38.3120 -95.1600 255° West 445 512 38,000  Level FlightAware
04:02PM 38.2910 -95.2540 254° West 445 512 38,000  Level FlightAware
04:03PM 38.2680 -95.3600 255° West 447 514 38,000  Level FlightAware
04:04PM 38.2120 -95.6170 255° West 450 518 38,000  Level FlightAware
04:05PM 38.1910 -95.7100 254° West 450 518 38,000  Level FlightAware
04:06PM 38.1680 -95.8150 254° West 452 520 38,000  Level FlightAware
04:06PM 38.1510 -95.8900 254° West 453 521 38,000  Level FlightAware
04:07PM 38.1320 -95.9770 255° West 453 521 38,000  Level FlightAware
04:08PM 38.0928 -96.1533 255° West 454 522 38,000  Level Kansas City Center
04:13PM 37.9040 -96.9750 255° West 455 524 38,000  Level FlightAware
04:14PM 37.8840 -97.0600 253° West 455 524 38,000  Level FlightAware
04:14PM 37.8630 -97.1510 254° West 454 522 38,000  Level FlightAware
04:15PM 37.8420 -97.2400 253° West 454 522 38,000  Level FlightAware
04:16PM 37.8200 -97.3340 254° West 455 524 38,000  Level FlightAware
04:16PM 37.8020 -97.4090 253° West 455 524 38,000  Level FlightAware
04:17PM 37.7740 -97.5250 253° West 454 522 38,000  Level FlightAware
04:17PM 37.7500 -97.6270 253° West 453 521 38,000  Level FlightAware
04:18PM 37.7270 -97.7220 253° West 452 520 38,000  Level FlightAware
04:19PM 37.7060 -97.8060 252° West 451 519 38,000  Level FlightAware
04:19PM 37.6860 -97.8890 253° West 450 518 38,000  Level FlightAware
04:20PM 37.6640 -97.9800 253° West 449 517 38,000  Level FlightAware
04:20PM 37.6410 -98.0730 253° West 449 517 38,000  Level FlightAware
04:21PM 37.6200 -98.1630 254° West 449 517 38,000  Level FlightAware
04:22PM 37.6000 -98.2440 253° West 449 517 38,000  Level FlightAware
04:22PM 37.5760 -98.3390 252° West 449 517 38,000  Level FlightAware
04:23PM 37.5550 -98.4230 253° West 451 519 38,000  Level FlightAware
04:23PM 37.5340 -98.5070 253° West 452 520 38,000  Level FlightAware
04:24PM 37.5120 -98.5960 253° West 453 521 38,000  Level FlightAware
04:25PM 37.4890 -98.6900 253° West 454 522 38,000  Level FlightAware
04:25PM 37.4650 -98.7820 252° West 455 524 38,000  Level FlightAware
04:26PM 37.4460 -98.8590 253° West 454 522 38,000  Level FlightAware
04:26PM 37.4230 -98.9510 253° West 453 521 38,000  Level FlightAware
04:27PM 37.3990 -99.0450 252° West 453 521 38,000  Level FlightAware
04:28PM 37.3740 -99.1420 252° West 452 520 38,000  Level FlightAware
04:28PM 37.3530 -99.2280 253° West 452 520 38,000  Level FlightAware
04:29PM 37.3300 -99.3130 251° West 450 518 38,000  Level FlightAware
04:29PM 37.3080 -99.4010 253° West 449 517 38,000  Level FlightAware
04:30PM 37.2860 -99.4850 252° West 450 518 38,000  Level FlightAware
04:31PM 37.2610 -99.5820 252° West 450 518 38,000  Level FlightAware
04:31PM 37.2380 -99.6690 252° West 451 519 38,000  Level FlightAware
04:32PM 37.2160 -99.7560 252° West 451 519 38,000  Level FlightAware
04:32PM 37.1960 -99.8300 251° West 452 520 38,000  Level FlightAware
04:33PM 37.1710 -99.9280 252° West 454 522 38,000  Level FlightAware
04:33PM 37.1490 -100.0070 251° West 455 524 38,000  Level FlightAware
04:34PM 37.1270 -100.0900 252° West 455 524 38,000  Level FlightAware
04:35PM 37.0990 -100.1920 251° West 455 524 38,000  Level FlightAware
04:35PM 37.0780 -100.2680 251° West 455 524 38,000  Level FlightAware
04:36PM 37.0570 -100.3450 251° West 455 524 38,000  Level FlightAware
04:37PM 37.0360 -100.4210 251° West 455 524 38,000  Level FlightAware
04:37PM 37.0150 -100.4970 251° West 455 524 38,000  Level FlightAware
04:38PM 36.9940 -100.5730 251° West 455 524 38,000  Level FlightAware
04:38PM 36.9730 -100.6500 251° West 455 524 38,000  Level FlightAware
04:39PM 36.9520 -100.7260 251° West 455 524 38,000  Level FlightAware
04:40PM 36.9310 -100.8020 251° West 455 524 38,000  Level FlightAware
04:40PM 36.9100 -100.8780 251° West 455 524 38,000  Level FlightAware
04:41PM 36.8880 -100.9570 251° West 455 524 38,000  Level FlightAware
04:41PM 36.8670 -101.0330 251° West 455 524 38,000  Level FlightAware
04:42PM 36.8460 -101.1090 251° West 455 524 38,000  Level FlightAware
04:43PM 36.8250 -101.1870 251° West 455 524 38,000  Level FlightAware
04:43PM 36.8040 -101.2630 251° West 455 524 38,000  Level FlightAware
04:44PM 36.7161 -101.6003 251° West 451 519 38,000  Level Albuquerque Center
04:45PM 36.6772 -101.7411 251° West 450 518 38,000  Level Albuquerque Center
04:46PM 36.6297 -101.9047 250° West 450 518 38,000  Level Albuquerque Center
04:47PM 36.5981 -102.0486 255° West 450 518 38,000  Level Albuquerque Center
04:48PM 36.5694 -102.1933 256° West 454 522 38,000  Level Albuquerque Center
04:49PM 36.5314 -102.3761 256° West 458 527 38,000  Level Albuquerque Center
04:50PM 36.4989 -102.5278 255° West 457 526 38,000  Level Albuquerque Center
04:51PM 36.4678 -102.6814 256° West 460 529 38,000  Level Albuquerque Center
04:52PM 36.4347 -102.8342 255° West 460 529 38,000  Level Albuquerque Center
04:53PM 36.4036 -102.9900 256° West 457 526 38,000  Level Albuquerque Center
04:54PM 36.3697 -103.1431 255° West 456 525 38,000  Level Albuquerque Center
04:55PM 36.3381 -103.2953 256° West 455 524 38,000  Level Albuquerque Center
04:56PM 36.2994 -103.4728 255° West 455 524 38,000  Level Albuquerque Center
04:57PM 36.2667 -103.6242 255° West 454 522 38,000  Level Albuquerque Center
04:59PM 36.2331 -103.7744 255° West 451 519 38,000  Level Albuquerque Center
05:00PM 36.1994 -103.9242 254° West 450 518 38,000  Level Albuquerque Center
05:01PM 36.1656 -104.0753 255° West 452 520 38,000  Level Albuquerque Center
05:02PM 36.1319 -104.2225 254° West 447 514 38,000  Level Albuquerque Center
05:03PM 36.0972 -104.3728 254° West 450 518 38,000  Level Albuquerque Center
05:04PM 36.0583 -104.5453 254° West 447 514 38,000  Level Albuquerque Center
05:05PM 36.0256 -104.6936 255° West 446 513 38,000  Level Albuquerque Center
05:06PM 35.9919 -104.8383 254° West 440 506 38,000  Level Albuquerque Center
05:07PM 35.9558 -104.9858 253° West 444 511 38,000  Level Albuquerque Center
05:08PM 35.9231 -105.1308 254° West 439 505 38,000  Level Albuquerque Center
05:14PM 35.7190 -105.9870 254° West 446 513 38,000  Level FlightAware
05:14PM 35.6990 -106.0720 254° West 445 512 38,000  Level FlightAware
05:15PM 35.6770 -106.1620 253° West 444 511 38,000  Level FlightAware
05:15PM 35.6560 -106.2470 253° West 443 510 38,000  Level FlightAware
05:16PM 35.6360 -106.3300 254° West 442 509 38,000  Level FlightAware
05:17PM 35.6150 -106.4120 253° West 441 507 38,000  Level FlightAware
05:17PM 35.5960 -106.4920 254° West 440 506 38,000  Level FlightAware
05:18PM 35.5740 -106.5790 253° West 440 506 38,000  Level FlightAware
05:18PM 35.5540 -106.6620 254° West 440 506 38,000  Level FlightAware
05:19PM 35.5330 -106.7450 253° West 439 505 38,000  Level FlightAware
05:19PM 35.5110 -106.8320 253° West 439 505 38,000  Level FlightAware
05:20PM 35.4900 -106.9170 253° West 440 506 38,000  Level FlightAware
05:21PM 35.4700 -106.9940 252° West 440 506 38,000  Level FlightAware
05:21PM 35.4490 -107.0780 253° West 440 506 38,000  Level FlightAware
05:22PM 35.4280 -107.1600 253° West 440 506 38,000  Level FlightAware
05:22PM 35.4060 -107.2470 253° West 440 506 38,000  Level FlightAware
05:23PM 35.3850 -107.3300 253° West 439 505 38,000  Level FlightAware
05:24PM 35.3630 -107.4170 253° West 439 505 38,000  Level FlightAware
05:24PM 35.3440 -107.4920 253° West 439 505 38,000  Level FlightAware
05:25PM 35.3230 -107.5720 252° West 438 504 38,000  Level FlightAware
05:25PM 35.3000 -107.6590 252° West 438 504 38,000  Level FlightAware
05:26PM 35.2810 -107.7310 252° West 438 504 38,000  Level FlightAware
05:27PM 35.2550 -107.8330 253° West 434 499 38,000  Level FlightAware
05:27PM 35.2340 -107.9130 252° West 434 499 38,000  Level FlightAware
05:28PM 35.2160 -107.9820 252° West 434 499 38,000  Level FlightAware
05:28PM 35.1970 -108.0540 252° West 434 499 38,000  Level FlightAware
05:29PM 35.1780 -108.1250 252° West 434 499 38,000  Level FlightAware
05:30PM 35.1590 -108.1970 252° West 434 499 38,000  Level FlightAware
05:30PM 35.1400 -108.2680 252° West 434 499 38,000  Level FlightAware
05:31PM 35.1210 -108.3390 252° West 434 499 38,000  Level FlightAware
05:31PM 35.1010 -108.4130 252° West 434 499 38,000  Level FlightAware
05:32PM 35.0820 -108.4840 252° West 434 499 38,000  Level FlightAware
05:33PM 35.0630 -108.5560 252° West 434 499 38,000  Level FlightAware
05:33PM 35.0440 -108.6290 252° West 434 499 38,000  Level FlightAware
05:34PM 35.0250 -108.7000 252° West 434 499 38,000  Level FlightAware
05:34PM 35.0060 -108.7720 252° West 434 499 38,000 -1,740 Level FlightAware
05:35PM 34.9370 -109.0290 252° West 443 510 36,000 -1,800 Descending FlightAware
05:36PM 34.9150 -109.1080 251° West 443 510 36,000  Level FlightAware
05:36PM 34.8970 -109.1960 256° West 444 511 36,000  Level FlightAware
05:37PM 34.8860 -109.2640 259° West 445 512 36,000  Level FlightAware
05:37PM 34.8720 -109.3500 259° West 445 512 36,000  Level FlightAware
05:38PM 34.8600 -109.4310 260° West 445 512 36,000  Level FlightAware
05:38PM 34.8470 -109.5160 259° West 441 507 36,000  Level FlightAware
05:39PM 34.8340 -109.6090 260° West 438 504 36,000  Level FlightAware
05:40PM 34.8220 -109.6950 260° West 438 504 36,000  Level FlightAware
05:40PM 34.8100 -109.7800 260° West 438 504 36,000  Level FlightAware
05:41PM 34.7990 -109.8760 262° West 438 504 36,000  Level FlightAware
05:41PM 34.7880 -109.9690 262° West 439 505 36,000  Level FlightAware
05:42PM 34.7790 -110.0480 262° West 441 507 36,000  Level FlightAware
05:43PM 34.7640 -110.1340 258° West 437 503 36,000  Level FlightAware
05:43PM 34.7310 -110.2090 242° Southwest 430 495 36,000  Level FlightAware
05:44PM 34.6920 -110.2700 232° Southwest 431 496 36,000  Level FlightAware
05:44PM 34.6470 -110.3400 232° Southwest 433 498 36,000 -540 Level FlightAware
05:45PM 34.6030 -110.4100 233° Southwest 434 499 35,400 -1,800 Descending FlightAware
05:45PM 34.5620 -110.4740 232° Southwest 437 503 33,900 -2,820 Descending FlightAware
05:46PM 34.5180 -110.5420 232° Southwest 440 506 32,200 -2,580 Descending FlightAware
05:47PM 34.4740 -110.6100 232° Southwest 433 498 30,900 -2,220 Descending FlightAware
05:47PM 34.4310 -110.6780 233° Southwest 425 489 29,600 -2,280 Descending FlightAware
05:48PM 34.3910 -110.7390 232° Southwest 417 480 28,400 -1,800 Descending FlightAware
05:48PM 34.3460 -110.8060 231° Southwest 394 453 27,500 -1,740 Descending FlightAware
05:49PM 34.3040 -110.8600 227° Southwest 387 445 26,300 -2,040 Descending FlightAware
05:49PM 34.2630 -110.9140 227° Southwest 379 436 25,200 -1,980 Descending FlightAware
05:50PM 34.2210 -110.9680 227° Southwest 375 432 24,000 -1,920 Descending FlightAware
05:51PM 34.1780 -111.0230 227° Southwest 367 422 22,900 -1,860 Descending FlightAware
05:51PM 34.1370 -111.0760 227° Southwest 360 414 21,800 -1,860 Descending FlightAware
05:52PM 34.1000 -111.1230 226° Southwest 355 409 20,800 -1,860 Descending FlightAware
05:52PM 34.0610 -111.1740 227° Southwest 348 400 19,700 -1,860 Descending FlightAware
05:53PM 34.0210 -111.2250 227° Southwest 341 392 18,600 -1,560 Descending FlightAware
05:54PM 33.9860 -111.2700 227° Southwest 330 380 17,900 -1,080 Descending FlightAware
05:54PM 33.9490 -111.3160 226° Southwest 336 387 17,400 -1,320 Descending FlightAware
05:55PM 33.9020 -111.3770 227° Southwest 327 376 16,200 -1,680 Descending FlightAware
05:55PM 33.8730 -111.4190 230° Southwest 324 373 15,300 -1,800 Descending FlightAware
05:56PM 33.8430 -111.4750 237° Southwest 319 367 14,200 -1,740 Descending FlightAware
05:57PM 33.8140 -111.5310 238° Southwest 313 360 13,200 -1,440 Descending FlightAware
05:57PM 33.7900 -111.5770 238° Southwest 312 359 12,600 -1,500 Descending FlightAware
05:58PM 33.7610 -111.6320 238° Southwest 308 354 11,500 -1,740 Descending FlightAware
05:58PM 33.7360 -111.6800 238° Southwest 307 353 10,600 -1,200 Descending FlightAware
05:59PM 33.7070 -111.7330 237° Southwest 308 354 10,100 -420 Descending FlightAware
06:00PM 33.6790 -111.7840 237° Southwest 313 360 10,100  Level FlightAware
06:00PM 33.6540 -111.8310 237° Southwest 312 359 10,100 -120 Level FlightAware
06:01PM 33.6260 -111.8830 237° Southwest 288 331 10,000 -480 Descending FlightAware
06:01PM 33.6170 -111.8990 236° Southwest 287 330 9,700 -1,500 Descending FlightAware
06:01PM 33.5990 -111.9320 237° Southwest 288 331 9,100 -1,620 Descending FlightAware
06:02PM 33.5840 -111.9620 239° Southwest 290 334 8,500 -1,800 Descending FlightAware
06:02PM 33.5690 -111.9890 236° Southwest 292 336 7,900 -1,800 Descending FlightAware
06:02PM 33.5550 -112.0170 239° Southwest 291 335 7,300 -1,200 Descending FlightAware
06:03PM 33.5410 -112.0440 238° Southwest 281 323 7,100 -300 Descending FlightAware
06:03PM 33.5280 -112.0700 239° Southwest 260 299 7,100  Level FlightAware
06:03PM 33.5260 -112.0810 258° West 252 290 7,100  Level FlightAware
06:03PM 33.5250 -112.0910 263° West 247 284 7,100 -900 Level FlightAware
06:04PM 33.5250 -112.1190 270° West 245 282 6,700 -1,140 Descending FlightAware
06:04PM 33.5260 -112.1410 273° West 245 282 6,400 -1,200 Descending FlightAware
06:04PM 33.5260 -112.1660 270° West 244 281 6,000 -1,260 Descending FlightAware
06:05PM 33.5190 -112.2030 257° West 242 278 5,400 -1,320 Descending FlightAware
06:05PM 33.5120 -112.2100 220° Southwest 241 277 5,200 -1,500 Descending FlightAware
06:05PM 33.5070 -112.2120 198° South 241 277 5,100 -1,500 Descending FlightAware
06:05PM 33.4990 -112.2140 192° South 242 278 4,900 -1,200 Descending FlightAware
06:05PM 33.4860 -112.2150 184° South 244 281 4,700 -1,200 Descending FlightAware
06:06PM 33.4620 -112.2030 157° South 237 273 4,200 -1,020 Descending FlightAware
06:06PM 33.4570 -112.1950 127° Southeast 225 259 4,200 180 Level FlightAware
06:06PM 33.4480 -112.1750 118° Southeast 186 214 4,300 -300 Climbing FlightAware
06:06PM 33.4420 -112.1540 109° East 158 182 4,000 -1,020 Descending FlightAware
06:07PM 33.4400 -112.1430 102° East 157 181 3,700 -1,320 Descending FlightAware
06:07PM 33.4360 -112.1280 108° East 152 175 3,300 -1,560 Descending FlightAware
06:07PM 33.4330 -112.1100 101° East 156 180 2,700 -1,500 Descending FlightAware
06:08PM 33.4310 -112.0940 99° East 146 168 2,300 -1,020 Descending FlightAware
06:08PM 33.4310 -112.0810 90° East 144 166 2,100 -900 Descending FlightAware
06:08PM 33.4310 -112.0650 90° East 146 168 1,800 -720 Descending FlightAware
06:09PM 33.4310 -112.0520 90° East 147 169 1,700 -600 Descending FlightAware
06:09PM 33.4310 -112.0390 90° East 149 171 1,500 -300 Descending FlightAware
06:09PM 33.4310 -112.0210 90° East 149 171 1,500  Level FlightAware
06:10PM 33.4310 -112.0000 90° East 125 144 -2,820 Descending FlightAware